Tiempo atmosférico en la estación meteorológica de Guadalcanal, Sevilla (745 m.)



Fecha
DESCASC
Temp. máxima en grados centígrados (hora)
DESCASC
Temp. mínima en grados centígrados (hora)
DESCASC
Temp. media en grados centígrados
DESCASC
Racha de viento máxima en m/sg (hora)
DESCASC
Velocidad máxima media en intervalos de 10 minutos(hora)
DESCASC
Precipitaciones diarias en mm
DESCASC
Precipitaciones de 00:00 a 06:00 en mm
DESCASC
Precipitaciones de 06:00 a 12:00 en mm
DESCASC
Precipitaciones de 12:00 a 18:00 en mm
DESCASC
Precipitaciones de 18:00 a 24:00 en mm
DESCASC
17-09-2020 23.9 (16:00) 17.6 (06:30) 20.8 15.28 (16:20) 9.44 (17:10) 0.2 0 0 0 0.2
15-09-2020 28.4 (18:00) 15.5 (08:40) 21.9 8.33 (00:50) 5 (01:00) 0 0 0 0 0
14-09-2020 30 (15:40) 19.6 (02:10) 24.8 11.67 (11:00) 7.5 (11:00) 0 0 0 0 0
13-09-2020 31.4 (16:20) 21 (00:00) 26.2 11.67 (13:00) 6.94 (13:00) 0 0 0 0 0
12-09-2020 34.1 (16:10) 17.7 (06:50) 25.9 8.06 (13:30) 4.44 (13:00) 0 0 0 0 0
11-09-2020 32 (15:10) 17.5 (00:00) 24.8 10.56 (16:20) 3.89 (15:30) 0 0 0 0 0
10-09-2020 33.1 (15:10) 18.4 (00:00) 25.7 6.39 (15:20) 3.61 (04:50) 0 0 0 0 0
09-09-2020 30.1 (16:00) 15.5 (07:20) 22.8 6.39 (13:50) 3.33 (15:00) 0 0 0 0 0
08-09-2020 30.5 (15:10) 17.7 (00:00) 24.1 6.67 (18:30) 4.17 (01:10) 0 0 0 0 0
07-09-2020 35 (16:30) 19.4 (04:00) 27.2 9.44 (17:20) 4.72 (05:20) 0 0 0 0 0
06-09-2020 36 (15:40) 17.2 (00:00) 26.6 6.39 (15:30) 3.33 (15:00) 0 0 0 0 0
05-09-2020 34.9 (16:40) 16.6 (00:00) 25.8 7.22 (17:30) 3.61 (11:20) 0 0 0 0 0
04-09-2020 34.5 (16:40) 16.9 (00:00) 25.7 8.89 (17:20) 3.89 (14:00) 0 0 0 0 0
03-09-2020 34 (16:00) 16.4 (00:00) 25.2 7.5 (18:30) 4.17 (19:00) 0 0 0 0 0
02-09-2020 32.1 (16:00) 17.4 (00:00) 24.7 8.06 (01:30) 4.72 (01:50) 0 0 0 0 0
01-09-2020 30.3 (16:30) 15.7 (00:00) 23 9.44 (19:40) 5 (17:40) 0 0 0 0 0
31-08-2020 31.7 (18:10) 15.6 (00:00) 23.7 6.94 (07:00) 4.17 (08:40) 0 0 0 0 0
30-08-2020 28.4 (16:20) 14.3 (00:00) 21.3 9.72 (01:50) 5.28 (05:40) 0 0 0 0 0
29-08-2020 26 (16:40) 11.4 (00:00) 18.7 12.78 (13:50) 7.5 (02:20) 0 0 0 0 0
28-08-2020 31.6 (15:50) 17.9 (00:00) 24.8 10.28 (23:00) 6.11 (23:10) 0 0 0 0 0
27-08-2020 37.5 (15:50) 23 (00:00) 30.3 9.17 (23:59) 6.11 (23:59) 0 0 0 0 0
26-08-2020 38.3 (16:40) 24.3 (00:00) 31.3 7.22 (02:20) 5.28 (04:50) 0 0 0 0 0
25-08-2020 38 (18:50) 18.5 (00:00) 28.3 8.33 (15:20) 3.33 (03:00) 0 0 0 0 0
24-08-2020 36 (17:20) 18.1 (08:00) 27.1 8.33 (01:50) 5.28 (01:40) 0 0 0 0 0
23-08-2020 34.8 (16:10) 20.7 (00:00) 27.8 10.56 (16:00) 5.83 (01:50) 0 0 0 0 0
22-08-2020 34.8 (17:20) 19.6 (00:00) 27.2 7.5 (00:40) 5 (01:20) 0 0 0 0 0
21-08-2020 35 (18:00) 17.4 (07:50) 26.2 8.61 (17:10) 4.44 (17:10) 0 0 0 0 0
20-08-2020 34 (17:00) 17.7 (00:00) 25.9 10 (13:30) 5.56 (13:50) 0 0 0 0 0

Gráficas

Temp. máximas Temp. mínimas Temp. medias Precipitaciones Rachas de viento máximas Velocidades máximas media en intervalos de 10 minutos

Datos horarios

Fecha y hora oficial Temperatura (ºC) Velocidad del viento (km/h) Dirección del viento Racha (km/h) Dirección de racha Precipitación (mm) Presión (hPa) Tendencia (hPa) Humedad (%)
2020-09-18 23:00:00 15.3 25 Sudoeste 49 Sudoeste 0 -- -- 95
2020-09-18 22:00:00 15 22 Sudoeste 44 Sudoeste 0.2 -- -- 96
2020-09-18 21:00:00 14.6 29 Sudoeste 49 Sudoeste 1 -- -- 96
2020-09-18 20:00:00 16.1 24 Sudoeste 49 Sudoeste 0.2 -- -- 93
2020-09-18 19:00:00 17.4 30 Sudoeste 51 Sudoeste 0 -- -- 84
2020-09-18 18:00:00 18.3 31 Sudoeste 54 Sudoeste 0 -- -- 81
2020-09-18 17:00:00 16.2 24 Sudoeste 45 Sur 1.4 -- -- 97
2020-09-18 16:00:00 16 21 Sudoeste 36 Sudoeste 0.4 -- -- 97
2020-09-18 15:00:00 15.4 17 Sudoeste 35 Sudoeste 2.4 -- -- 99
2020-09-18 14:00:00 15.8 24 Sudoeste 52 Sudoeste 1.8 -- -- 98
2020-09-18 13:00:00 17.8 31 Sudoeste 54 Sur 0.2 -- -- 82
2020-09-18 12:00:00 18.7 23 Sur 47 Sudoeste 0 -- -- 79
2020-09-18 11:00:00 17.4 22 Sudoeste 40 Sudoeste 0 -- -- 88
2020-09-18 10:00:00 16.6 20 Sudoeste 32 Sur 0 -- -- 91
2020-09-18 09:00:00 15 16 Sudoeste 31 Sudoeste 0 -- -- 94
2020-09-18 08:00:00 14.8 20 Sudoeste 42 Sudoeste 0 -- -- 92
2020-09-18 07:00:00 15.2 21 Sudoeste 33 Sudoeste 0 -- -- 91
2020-09-18 06:00:00 15.4 14 Sudoeste 31 Sudoeste 0 -- -- 96
2020-09-18 05:00:00 15.9 19 Sudoeste 40 Sur 0.4 -- -- 98
2020-09-18 04:00:00 16.6 19 Sur 50 Sudoeste 0.4 -- -- 94
2020-09-18 03:00:00 17.4 25 Sudoeste 49 Sudoeste 0 -- -- 87
2020-09-18 02:00:00 17.5 26 Sudoeste 50 Sur 0 -- -- 89
2020-09-18 01:00:00 17.6 26 Sudoeste 53 Sudoeste 0 -- -- 89
2020-09-18 00:00:00 18.1 23 Sudoeste 50 Sur 0 -- -- 87
2020-09-17 23:00:00 18.5 29 Sudoeste 47 Sur 0 -- -- 86
2020-09-17 22:00:00 18.5 20 Sudoeste 44 Sudoeste 0 -- -- 83
2020-09-17 21:00:00 18.6 23 Sudoeste 44 Sudoeste 0.2 -- -- 84
2020-09-17 20:00:00 21 24 Sudoeste 45 Sudoeste 0 -- -- 65
2020-09-17 19:00:00 22.4 30 Sudoeste 55 Sudoeste 0 -- -- 58
2020-09-17 18:00:00 23.3 27 Sudoeste 53 Sudoeste 0 -- -- 55
2020-09-17 17:00:00 23.5 31 Sudoeste 55 Sudoeste 0 -- -- 56
2020-09-17 16:00:00 23.9 28 Sudoeste 52 Sudoeste 0 -- -- 57
2020-09-17 15:00:00 22.4 24 Sudoeste 45 Sur 0 -- -- 65
2020-09-17 14:00:00 20.8 24 Sudoeste 49 Sudoeste 0 -- -- 74
2020-09-17 13:00:00 19.7 23 Sudoeste 44 Sudoeste 0 -- -- 79
2020-09-17 12:00:00 19.2 26 Sudoeste 42 Sudoeste 0 -- -- 81
2020-09-17 11:00:00 18.9 23 Sudoeste 45 Sur 0 -- -- 84
2020-09-17 10:00:00 18.6 27 Sur 45 Sur 0 -- -- 86
2020-09-17 09:00:00 17.9 22 Sudoeste 39 Sudoeste 0 -- -- 91
2020-09-17 08:00:00 17.7 21 Sudoeste 45 Sur 0 -- -- 92
2020-09-17 07:00:00 17.7 18 Sudoeste 37 Sur 0 -- -- 91
2020-09-17 06:00:00 17.7 16 Sudoeste 30 Sudoeste 0 -- -- 92
2020-09-17 05:00:00 17.7 12 Sudoeste 23 Sudoeste 0 -- -- 90
2020-09-17 04:00:00 18.2 12 Sudoeste 22 Sudoeste 0 -- -- 87
2020-09-17 03:00:00 18.9 10 Sudoeste 22 Sudoeste 0 -- -- 82
2020-09-17 02:00:00 20 12 Sudoeste 19 Sudoeste 0 -- -- 69
2020-09-17 01:00:00 20.3 9 Sudoeste 18 Sur 0 -- -- 67
2020-09-17 00:00:00 20.3 9 Sur 24 Sudoeste 0 -- -- 76
2020-09-16 23:00:00 21.5 14 Sudoeste 25 Sudoeste 0 -- -- 61
2020-09-16 22:00:00 21.9 15 Sur 24 Sudeste 0 -- -- 57
2020-09-16 21:00:00 22.2 11 Sudoeste 22 Sudoeste 0 -- -- 52
2020-09-16 20:00:00 22.6 11 Sudoeste 23 Sudoeste 0 -- -- 52
2020-09-16 19:00:00 23.5 14 Sudoeste 24 Sur 0 -- -- 46
2020-09-16 18:00:00 24.7 16 Sudoeste 28 Sudoeste 0 -- -- 40
2020-09-16 17:00:00 25 15 Sur 28 Sur 0 -- -- 41
2020-09-16 16:00:00 26.2 15 Sur 28 Sur 0 -- -- 41
2020-09-16 15:00:00 26.5 14 Sur 27 Sur 0 -- -- 39
2020-09-16 14:00:00 26.8 13 Sur 30 Sur 0 -- -- 36
2020-09-16 13:00:00 26.3 14 Sudoeste 30 Sur 0 -- -- 32
2020-09-16 12:00:00 24.9 10 Sudoeste 19 Sudoeste 0 -- -- 45
2020-09-16 11:00:00 24.5 5 Sudeste 13 Sudeste 0 -- -- 47
2020-09-16 10:00:00 21.1 3 Sudeste 14 Nordeste 0 -- -- 54
2020-09-16 09:00:00 17.7 13 Nordeste 17 Nordeste 0 -- -- 67
2020-09-16 08:00:00 17.3 14 Nordeste 17 Norte 0 -- -- 68
2020-09-16 07:00:00 17.7 13 Nordeste 21 Norte 0 -- -- 65
2020-09-16 06:00:00 18.3 13 Nordeste 18 Nordeste 0 -- -- 61
2020-09-16 05:00:00 16.5 2 Norte 8 Norte 0 -- -- 68
2020-09-16 04:00:00 16.6 5 Norte 8 Norte 0 -- -- 67
2020-09-16 03:00:00 18.1 4 Nordeste 8 Norte 0 -- -- 65
2020-09-16 02:00:00 19 6 Norte 8 Norte 0 -- -- 65
2020-09-16 01:00:00 19.3 4 Oeste 8 Oeste 0 -- -- 66
2020-09-16 00:00:00 20.8 5 Oeste 11 Oeste 0 -- -- 60
2020-09-15 23:00:00 19.9 3 Oeste 7 Oeste 0 -- -- 63
2020-09-15 22:00:00 21.2 5 Sudoeste 11 Sudoeste 0 -- -- 59
2020-09-15 21:00:00 22.1 3 Sur 12 Sudoeste 0 -- -- 50
2020-09-15 20:00:00 25.8 6 Sudoeste 16 Sudoeste 0 -- -- 39
2020-09-15 19:00:00 27.6 7 Sudoeste 18 Sur 0 -- -- 35
2020-09-15 18:00:00 28.4 6 Sudoeste 21 Sur 0 -- -- 35
2020-09-15 17:00:00 28 11 Sur 25 Sudoeste 0 -- -- 36
2020-09-15 16:00:00 27.3 15 Sudoeste 27 Oeste 0 -- -- 42
2020-09-15 15:00:00 27.7 15 Sudoeste 26 Sudoeste 0 -- -- 42
2020-09-15 14:00:00 25.2 13 Sudoeste 29 Sudoeste 0 -- -- 49
2020-09-15 13:00:00 24.7 14 Sudoeste 24 Sudoeste 0 -- -- 53
2020-09-15 12:00:00 23 11 Sudoeste 22 Sudoeste 0 -- -- 61
2020-09-15 11:00:00 20.7 10 Sudoeste 23 Sur 0 -- -- 70
2020-09-15 10:00:00 19.3 4 Sudoeste 9 Sur 0 -- -- 73
2020-09-15 09:00:00 16.1 2 Nordeste 4 Nordeste 0 -- -- 86
2020-09-15 08:00:00 16.2 3 Sudoeste 8 Sudoeste 0 -- -- 84
2020-09-15 07:00:00 17.5 5 Sudoeste 8 Oeste 0 -- -- 79
2020-09-15 06:00:00 17.9 4 Sudoeste 10 Sudoeste 0 -- -- 81
2020-09-15 05:00:00 18.3 6 Sudoeste 20 Sudoeste 0 -- -- 81
2020-09-15 04:00:00 18.7 11 Sudoeste 23 Sudoeste 0 -- -- 79
2020-09-15 03:00:00 19.2 14 Sudoeste 26 Sudoeste 0 -- -- 80
2020-09-15 02:00:00 19.1 14 Sudoeste 26 Sudoeste 0 -- -- 84
2020-09-15 01:00:00 20.1 18 Sudoeste 30 Sudoeste 0 -- -- 79
2020-09-15 00:00:00 21.3 17 Sudoeste 26 Sudoeste 0 -- -- 74
2020-09-14 23:00:00 22.1 15 Sudoeste 24 Sudoeste 0 -- -- 73
2020-09-14 22:00:00 22.7 12 Sudoeste 21 Sudoeste 0 -- -- 68
2020-09-14 21:00:00 23.8 13 Sudoeste 24 Sudoeste 0 -- -- 61
2020-09-14 20:00:00 25.6 14 Sudoeste 30 Sudoeste 0 -- -- 51
2020-09-14 19:00:00 26.8 16 Sudoeste 29 Sudoeste 0 -- -- 48
2020-09-14 18:00:00 27.9 16 Sudoeste 34 Sur 0 -- -- 41
2020-09-14 17:00:00 28.8 19 Sur 35 Sur 0 -- -- 37
2020-09-14 16:00:00 29.2 21 Sudoeste 35 Sur 0 -- -- 33
2020-09-14 15:00:00 29.2 18 Sudoeste 37 Sudoeste 0 -- -- 33
2020-09-14 14:00:00 28.2 23 Sur 38 Sur 0 -- -- 35
2020-09-14 13:00:00 27.1 21 Sudoeste 36 Sudoeste 0 -- -- 36
2020-09-14 12:00:00 25.2 22 Sur 40 Sur 0 -- -- 40
2020-09-14 11:00:00 23.5 27 Sur 42 Sur 0 -- -- 44
2020-09-14 10:00:00 21.9 19 Sur 33 Sur 0 -- -- 49
2020-09-14 09:00:00 21.9 15 Sur 31 Sur 0 -- -- 48
2020-09-14 08:00:00 21.6 10 Sur 22 Sur 0 -- -- 48
2020-09-14 07:00:00 21.5 14 Sur 28 Sur 0 -- -- 49
2020-09-14 06:00:00 21.5 18 Sur 31 Sur 0 -- -- 49
2020-09-14 05:00:00 21.8 17 Sur 28 Sudoeste 0 -- -- 47
2020-09-14 04:00:00 21.5 10 Sur 17 Sudoeste 0 -- -- 48
2020-09-14 03:00:00 20.9 5 Este 8 Sudeste 0 -- -- 57
2020-09-14 02:00:00 19.7 0 Calma 8 Sur 0 -- -- 60
2020-09-14 01:00:00 21 5 Sur 21 Sur 0 -- -- 50
2020-09-14 00:00:00 23.2 12 Sur 21 Sur 0 -- -- 40
2020-09-13 23:00:00 24.4 15 Sur 25 Sur 0 -- -- 38
2020-09-13 22:00:00 24.6 8 Sur 17 Sur 0 -- -- 35
2020-09-13 21:00:00 26 9 Sur 20 Sur 0 -- -- 30
2020-09-13 20:00:00 28.6 14 Sur 31 Sur 0 -- -- 25
2020-09-13 19:00:00 29.1 17 Sur 35 Sur 0 -- -- 21
2020-09-13 18:00:00 30 17 Sur 40 Sur 0 -- -- 21
2020-09-13 17:00:00 30.6 17 Sur 41 Sur 0 -- -- 21
2020-09-13 16:00:00 30.7 21 Sur 36 Sur 0 -- -- 21
2020-09-13 15:00:00 29.8 22 Sur 38 Sur 0 -- -- 24
2020-09-13 14:00:00 29.8 23 Sur 41 Sur 0 -- -- 23
2020-09-13 13:00:00 27.9 25 Sur 42 Sur 0 -- -- 24
2020-09-13 12:00:00 28.4 13 Sur 24 Sur 0 -- -- 28
2020-09-13 11:00:00 25.9 7 Sudeste 18 Sur 0 -- -- 33
2020-09-13 10:00:00 24.1 6 Este 23 Sudeste 0 -- -- 37
2020-09-13 09:00:00 22.7 7 Sudeste 14 Sudeste 0 -- -- 39
2020-09-13 08:00:00 21.5 5 Sudeste 14 Sur 0 -- -- 45
2020-09-13 07:00:00 21 3 Sudeste 20 Sudoeste 0 -- -- 46
2020-09-13 06:00:00 22.4 15 Sur 31 Sur 0 -- -- 43
2020-09-13 05:00:00 23.3 19 Sur 38 Sur 0 -- -- 38
2020-09-13 04:00:00 23.9 19 Sur 36 Sur 0 -- -- 35
2020-09-13 03:00:00 24.1 16 Sur 26 Sur 0 -- -- 33
2020-09-13 02:00:00 21.5 4 Sudoeste 9 Sur 0 -- -- 37
2020-09-13 01:00:00 21.4 4 Sudoeste 8 Sur 0 -- -- 45
2020-09-13 00:00:00 23.5 5 Sudoeste 16 Sudoeste 0 -- -- 36
2020-09-12 23:00:00 24.7 5 Sur 23 Sur 0 -- -- 27
2020-09-12 22:00:00 25.7 6 Sur 15 Sur 0 -- -- 24
2020-09-12 21:00:00 26.4 5 Sur 18 Sur 0 -- -- 28
2020-09-12 20:00:00 29.3 10 Sur 21 Sudeste 0 -- -- 25
2020-09-12 19:00:00 32.6 11 Sur 22 Sudeste 0 -- -- 21
2020-09-12 18:00:00 33.1 10 Sudeste 22 Este 0 -- -- 20
2020-09-12 17:00:00 32 12 Sur 24 Sudoeste 0 -- -- 21
2020-09-12 16:00:00 34 14 Sur 28 Sur 0 -- -- 19
2020-09-12 15:00:00 32.2 14 Sudoeste 29 Sur 0 -- -- 21
2020-09-12 14:00:00 32.4 13 Sur 29 Sudeste 0 -- -- 21
2020-09-12 13:00:00 30.7 16 Sudeste 27 Sudeste 0 -- -- 23
2020-09-12 12:00:00 29.4 14 Sudeste 24 Sur 0 -- -- 24
2020-09-12 11:00:00 27.3 11 Sur 23 Sur 0 -- -- 27
2020-09-12 10:00:00 24.8 7 Sur 18 Sur 0 -- -- 30
2020-09-12 09:00:00 19.7 2 Sur 10 Sudeste 0 -- -- 43
2020-09-12 08:00:00 18 2 Oeste 5 Sur 0 -- -- 53
2020-09-12 07:00:00 17.7 2 Sudeste 4 Este 0 -- -- 54
2020-09-12 06:00:00 18.3 2 Noroeste 4 Noroeste 0 -- -- 51
2020-09-12 05:00:00 19.2 3 Norte 8 Norte 0 -- -- 43
2020-09-12 04:00:00 21.1 8 Norte 9 Nordeste 0 -- -- 37
2020-09-12 03:00:00 19.8 5 Nordeste 7 Nordeste 0 -- -- 39
2020-09-12 02:00:00 21.1 0 Calma 9 Oeste 0 -- -- 38
2020-09-12 01:00:00 20.7 0 Calma 3 Nordeste 0 -- -- 40
2020-09-12 00:00:00 21.3 2 Nordeste 4 Norte 0 -- -- 37
2020-09-11 23:00:00 21.6 2 Norte 3 Norte 0 -- -- 36
2020-09-11 22:00:00 22.1 0 Calma 4 Sudeste 0 -- -- 36
2020-09-11 21:00:00 24.5 3 Sur 12 Sudoeste 0 -- -- 32
2020-09-11 20:00:00 28.1 6 Sudoeste 18 Sudoeste 0 -- -- 26
2020-09-11 19:00:00 29.7 10 Sudoeste 16 Sudoeste 0 -- -- 25
2020-09-11 18:00:00 29.1 8 Sur 26 Sudoeste 0 -- -- 27
2020-09-11 17:00:00 29.1 11 Sudoeste 38 Oeste 0 -- -- 28
2020-09-11 16:00:00 31 8 Oeste 23 Sudoeste 0 -- -- 24
2020-09-11 15:00:00 31.9 9 Sur 23 Sudoeste 0 -- -- 23
2020-09-11 14:00:00 31 11 Sur 22 Sur 0 -- -- 24
2020-09-11 13:00:00 29.6 4 Sur 13 Sudoeste 0 -- -- 27
2020-09-11 12:00:00 27.7 7 Sudoeste 14 Sudoeste 0 -- -- 32
2020-09-11 11:00:00 25.1 7 Sudoeste 12 Oeste 0 -- -- 37
2020-09-11 10:00:00 22.4 3 Sudoeste 6 Oeste 0 -- -- 40
2020-09-11 09:00:00 18.8 0 Calma 6 Noroeste 0 -- -- 49
2020-09-11 08:00:00 19.2 6 Norte 8 Norte 0 -- -- 45
2020-09-11 07:00:00 19.2 4 Nordeste 13 Norte 0 -- -- 43
2020-09-11 06:00:00 19 2 Nordeste 14 Nordeste 0 -- -- 46
2020-09-11 05:00:00 20.8 9 Nordeste 15 Norte 0 -- -- 43
2020-09-11 04:00:00 20.9 4 Noroeste 8 Oeste 0 -- -- 43
2020-09-11 03:00:00 20.5 3 Norte 6 Norte 0 -- -- 44
2020-09-11 02:00:00 20 4 Norte 5 Norte 0 -- -- 45
2020-09-11 01:00:00 20.2 3 Nordeste 4 Nordeste 0 -- -- 44
2020-09-11 00:00:00 21.2 2 Norte 5 Norte 0 -- -- 41
2020-09-10 23:00:00 21.9 3 Nordeste 6 Nordeste 0 -- -- 37
2020-09-10 22:00:00 23.5 3 Nordeste 10 Norte 0 -- -- 33
2020-09-10 21:00:00 25.7 5 Norte 14 Norte 0 -- -- 24
2020-09-10 20:00:00 29.3 6 Noroeste 18 Noroeste 0 -- -- 20
2020-09-10 19:00:00 32 8 Noroeste 15 Noroeste 0 -- -- 17
2020-09-10 18:00:00 32.5 8 Nordeste 18 Nordeste 0 -- -- 16
2020-09-10 17:00:00 32.4 7 Norte 20 Norte 0 -- -- 17
2020-09-10 16:00:00 31.6 9 Nordeste 23 Nordeste 0 -- -- 20
2020-09-10 15:00:00 32.1 6 Nordeste 17 Nordeste 0 -- -- 19
2020-09-10 14:00:00 30.9 8 Norte 19 Norte 0 -- -- 21
2020-09-10 13:00:00 29.2 7 Sur 16 Sudoeste 0 -- -- 25
2020-09-10 12:00:00 26.7 6 Oeste 15 Sudoeste 0 -- -- 31
2020-09-10 11:00:00 25 5 Sudoeste 9 Sudoeste 0 -- -- 35
2020-09-10 10:00:00 22.5 0 Calma 5 Sudoeste 0 -- -- 41
2020-09-10 09:00:00 18.8 0 Calma 9 Norte 0 -- -- 51
2020-09-10 08:00:00 20.5 8 Nordeste 12 Norte 0 -- -- 43
2020-09-10 07:00:00 20.6 10 Norte 14 Norte 0 -- -- 46
2020-09-10 06:00:00 21.1 8 Norte 17 Norte 0 -- -- 43
2020-09-10 05:00:00 21.6 12 Norte 20 Noroeste 0 -- -- 42
2020-09-10 04:00:00 20.1 6 Norte 8 Norte 0 -- -- 36
2020-09-10 03:00:00 19.8 7 Nordeste 8 Nordeste 0 -- -- 36
2020-09-10 02:00:00 20.1 6 Nordeste 8 Nordeste 0 -- -- 37
2020-09-10 01:00:00 20.4 5 Norte 7 Norte 0 -- -- 37
2020-09-10 00:00:00 22.3 6 Nordeste 8 Nordeste 0 -- -- 33
2020-09-09 23:00:00 23.1 6 Nordeste 13 Nordeste 0 -- -- 31
2020-09-09 22:00:00 23.8 8 Nordeste 15 Norte 0 -- -- 33
2020-09-09 21:00:00 25 5 Norte 14 Nordeste 0 -- -- 37
2020-09-09 20:00:00 27.7 9 Nordeste 19 Nordeste 0 -- -- 35
2020-09-09 19:00:00 29.1 4 Norte 13 Noroeste 0 -- -- 34
2020-09-09 18:00:00 28.1 3 Norte 10 Norte 0 -- -- 36
2020-09-09 17:00:00 27.7 4 Noroeste 14 Sudoeste 0 -- -- 36
2020-09-09 16:00:00 30.1 6 Norte 18 Oeste 0 -- -- 32
2020-09-09 15:00:00 28.1 12 Sudoeste 20 Sudoeste 0 -- -- 38
2020-09-09 14:00:00 28.2 5 Sudeste 23 Sur 0 -- -- 38
2020-09-09 13:00:00 26.2 6 Sudoeste 19 Sur 0 -- -- 45
2020-09-09 12:00:00 24.6 7 Sudoeste 13 Oeste 0 -- -- 54
2020-09-09 11:00:00 21.9 5 Sudoeste 10 Sur 0 -- -- 66
2020-09-09 10:00:00 19.7 5 Sudoeste 8 Sudoeste 0 -- -- 75
2020-09-09 09:00:00 17.3 0 Calma 4 Sudeste 0 -- -- 83
2020-09-09 08:00:00 15.6 0 Calma 4 Sudoeste 0 -- -- 88
2020-09-09 07:00:00 15.6 0 Calma 6 Sur 0 -- -- 87
2020-09-09 06:00:00 16.7 3 Sudoeste 12 Sudoeste 0 -- -- 82
2020-09-09 05:00:00 17.7 6 Sudoeste 12 Sudoeste 0 -- -- 78
2020-09-09 04:00:00 18.4 6 Sudoeste 14 Sur 0 -- -- 77
2020-09-09 03:00:00 19.4 10 Sudoeste 15 Sudoeste 0 -- -- 74
2020-09-09 02:00:00 20.4 9 Sudoeste 13 Sudoeste 0 -- -- 69
2020-09-09 01:00:00 21 7 Sur 15 Sur 0 -- -- 60
2020-09-09 00:00:00 22.1 8 Sur 20 Sur 0 -- -- 54
2020-09-08 23:00:00 22.9 11 Sudoeste 22 Sur 0 -- -- 50
2020-09-08 22:00:00 24.7 13 Sudoeste 21 Sur 0 -- -- 41
2020-09-08 21:00:00 25.3 11 Sur 20 Sur 0 -- -- 41
2020-09-08 20:00:00 27.2 9 Sudoeste 16 Sudoeste 0 -- -- 37
2020-09-08 19:00:00 29.4 11 Sur 24 Sur 0 -- -- 34
2020-09-08 18:00:00 30.2 10 Sur 22 Sudoeste 0 -- -- 32
2020-09-08 17:00:00 29.3 7 Sur 14 Sur 0 -- -- 32
2020-09-08 16:00:00 28.4 9 Este 20 Sur 0 -- -- 35
2020-09-08 15:00:00 30 10 Sur 22 Sudeste 0 -- -- 35
2020-09-08 14:00:00 28.8 9 Sur 23 Sur 0 -- -- 38
2020-09-08 13:00:00 26.5 9 Sur 22 Sudoeste 0 -- -- 44
2020-09-08 12:00:00 25.7 7 Sur 15 Sur 0 -- -- 48
2020-09-08 11:00:00 23.5 6 Nordeste 14 Nordeste 0 -- -- 52
2020-09-08 10:00:00 21 9 Sudeste 17 Sudeste 0 -- -- 64
2020-09-08 09:00:00 18.2 3 Sudeste 14 Nordeste 0 -- -- 72
2020-09-08 08:00:00 17.8 8 Nordeste 13 Nordeste 0 -- -- 41
2020-09-08 07:00:00 19.1 7 Nordeste 17 Este 0 -- -- 34
2020-09-08 06:00:00 20 6 Nordeste 18 Nordeste 0 -- -- 31
2020-09-08 05:00:00 20.5 11 Nordeste 19 Nordeste 0 -- -- 30
2020-09-08 04:00:00 20.9 9 Nordeste 15 Este 0 -- -- 30
2020-09-08 03:00:00 21.9 7 Nordeste 17 Nordeste 0 -- -- 29
2020-09-08 02:00:00 22.3 13 Nordeste 21 Nordeste 0 -- -- 28
2020-09-08 01:00:00 23.1 14 Nordeste 22 Nordeste 0 -- -- 27
2020-09-08 00:00:00 24.1 10 Norte 22 Nordeste 0 -- -- 26
2020-09-07 23:00:00 25 8 Nordeste 18 Nordeste 0 -- -- 25
2020-09-07 22:00:00 25.6 8 Norte 15 Nordeste 0 -- -- 26
2020-09-07 21:00:00 27.5 6 Norte 18 Norte 0 -- -- 24
2020-09-07 20:00:00 30.6 10 Norte 21 Norte 0 -- -- 21
2020-09-07 19:00:00 32.2 11 Norte 25 Norte 0 -- -- 20
2020-09-07 18:00:00 34.3 9 Norte 34 Nordeste 0 -- -- 18
2020-09-07 17:00:00 33.9 12 Norte 27 Noroeste 0 -- -- 18
2020-09-07 16:00:00 34.3 14 Noroeste 31 Norte 0 -- -- 18
2020-09-07 15:00:00 33.9 13 Norte 27 Norte 0 -- -- 20
2020-09-07 14:00:00 33.5 7 Norte 25 Norte 0 -- -- 21
2020-09-07 13:00:00 31.2 9 Nordeste 18 Norte 0 -- -- 25
2020-09-07 12:00:00 29.8 9 Nordeste 18 Norte 0 -- -- 27
2020-09-07 11:00:00 27.1 10 Nordeste 19 Nordeste 0 -- -- 33
2020-09-07 10:00:00 25.2 10 Norte 19 Nordeste 0 -- -- 38
2020-09-07 09:00:00 23.3 14 Norte 21 Norte 0 -- -- 41
2020-09-07 08:00:00 23.2 14 Norte 20 Norte 0 -- -- 39
2020-09-07 07:00:00 23.2 11 Nordeste 15 Nordeste 0 -- -- 32
2020-09-07 06:00:00 24.8 7 Norte 23 Norte 0 -- -- 28
2020-09-07 05:00:00 24.1 11 Norte 17 Norte 0 -- -- 30
2020-09-07 04:00:00 19.4 0 Calma 8 Norte 0 -- -- 44
2020-09-07 03:00:00 22.4 3 Sudoeste 21 Oeste 0 -- -- 48
2020-09-07 02:00:00 22.3 5 Noroeste 12 Oeste 0 -- -- 50
2020-09-07 01:00:00 21.9 3 Norte 5 Nordeste 0 -- -- 48
2020-09-07 00:00:00 22.5 2 Norte 4 Nordeste 0 -- -- 44
2020-09-06 23:00:00 23.2 0 Calma 6 Sudoeste 0 -- -- 39
2020-09-06 22:00:00 24.3 4 Sudoeste 6 Oeste 0 -- -- 37
2020-09-06 21:00:00 27.2 4 Noroeste 11 Sudoeste 0 -- -- 31
2020-09-06 20:00:00 32.1 6 Norte 18 Norte 0 -- -- 17
2020-09-06 19:00:00 34.5 7 Norte 18 Norte 0 -- -- 15
2020-09-06 18:00:00 35 9 Norte 20 Nordeste 0 -- -- 15
2020-09-06 17:00:00 33.8 9 Sur 22 Nordeste 0 -- -- 18
2020-09-06 16:00:00 34.3 4 Sudeste 23 Norte 0 -- -- 18
2020-09-06 15:00:00 34.1 12 Norte 21 Sudeste 0 -- -- 19
2020-09-06 14:00:00 32.4 5 Sudoeste 14 Sudoeste 0 -- -- 23
2020-09-06 13:00:00 31 7 Sur 16 Sudoeste 0 -- -- 26
2020-09-06 12:00:00 29 9 Sur 15 Sur 0 -- -- 28
2020-09-06 11:00:00 26.1 8 Sudoeste 13 Sudoeste 0 -- -- 37
2020-09-06 10:00:00 23.7 2 Sur 6 Sudoeste 0 -- -- 42
2020-09-06 09:00:00 -- 0 Calma 4 Nordeste 0 -- -- --
2020-09-06 08:00:00 17.3 3 Oeste 10 Oeste 0 -- -- 67
2020-09-06 07:00:00 18 5 Sudoeste 13 Sudoeste 0 -- -- 66
2020-09-06 06:00:00 19 6 Sudoeste 12 Sur 0 -- -- 59
2020-09-06 05:00:00 19.6 4 Oeste 8 Oeste 0 -- -- 49
2020-09-06 04:00:00 20 2 Norte 5 Sudoeste 0 -- -- 48
2020-09-06 03:00:00 20.3 0 Calma 5 Sudoeste 0 -- -- 45
2020-09-06 02:00:00 21.3 0 Calma 7 Oeste 0 -- -- 42
2020-09-06 01:00:00 23.4 5 Oeste 7 Oeste 0 -- -- 37
2020-09-06 00:00:00 23.4 3 Oeste 5 Oeste 0 -- -- 37
2020-09-05 23:00:00 23.7 2 Norte 11 Sudoeste 0 -- -- 37
2020-09-05 22:00:00 25.1 6 Oeste 13 Oeste 0 -- -- 34
2020-09-05 21:00:00 25.8 3 Nordeste 9 Nordeste 0 -- -- 25
2020-09-05 20:00:00 31.8 4 Norte 14 Este 0 -- -- 17
2020-09-05 19:00:00 34.3 5 Sudoeste 21 Norte 0 -- -- 16
2020-09-05 18:00:00 34.5 6 Norte 26 Norte 0 -- -- 17
2020-09-05 17:00:00 34.9 7 Nordeste 19 Nordeste 0 -- -- 16
2020-09-05 16:00:00 34.3 5 Sur 16 Nordeste 0 -- -- 18
2020-09-05 15:00:00 33.4 6 Sudeste 19 Sur 0 -- -- 19
2020-09-05 14:00:00 30.8 10 Sudoeste 21 Sur 0 -- -- 26
2020-09-05 13:00:00 29.8 8 Sur 17 Sur 0 -- -- 29
2020-09-05 12:00:00 27.2 10 Sur 19 Sur 0 -- -- 33
2020-09-05 11:00:00 24.8 10 Sur 17 Sur 0 -- -- 39
2020-09-05 10:00:00 22.4 2 Sur 4 Sudeste 0 -- -- 53
2020-09-05 09:00:00 17.9 0 Calma 5 Oeste 0 -- -- 72
2020-09-05 08:00:00 16.7 2 Noroeste 5 Norte 0 -- -- 73
2020-09-05 07:00:00 16.9 3 Este 4 Norte 0 -- -- 74
2020-09-05 06:00:00 16.6 0 Calma 4 Sur 0 -- -- 75
2020-09-05 05:00:00 17.6 0 Calma 10 Sur 0 -- -- 70
2020-09-05 04:00:00 18.5 4 Sur 9 Sudoeste 0 -- -- 62
2020-09-05 03:00:00 18.9 5 Oeste 8 Sudoeste 0 -- -- 54
2020-09-05 02:00:00 19.6 2 Sudoeste 7 Sudoeste 0 -- -- 47
2020-09-05 01:00:00 21.3 5 Oeste 10 Oeste 0 -- -- 41
2020-09-05 00:00:00 23.5 7 Oeste 17 Sudoeste 0 -- -- 34
2020-09-04 23:00:00 22.9 6 Sur 14 Sur 0 -- -- 33
2020-09-04 22:00:00 23.7 4 Sudoeste 11 Sudoeste 0 -- -- 30
2020-09-04 21:00:00 26.5 6 Sudoeste 19 Sudoeste 0 -- -- 25
2020-09-04 20:00:00 30 9 Sur 20 Sudoeste 0 -- -- 20
2020-09-04 19:00:00 32.3 9 Sur 24 Sur 0 -- -- 17
2020-09-04 18:00:00 31.9 13 Sur 32 Oeste 0 -- -- 20
2020-09-04 17:00:00 33.2 7 Sudeste 23 Este 0 -- -- 22
2020-09-04 16:00:00 33.6 10 Sudeste 23 Sudeste 0 -- -- 22
2020-09-04 15:00:00 32.7 8 Sudeste 32 Este 0 -- -- 24
2020-09-04 14:00:00 31.2 14 Sudeste 29 Sudeste 0 -- -- 27
2020-09-04 13:00:00 29.4 12 Este 23 Sudeste 0 -- -- 30
2020-09-04 12:00:00 28 7 Este 20 Nordeste 0 -- -- 35
2020-09-04 11:00:00 25.4 9 Este 14 Este 0 -- -- 41
2020-09-04 10:00:00 22 7 Sudeste 14 Sur 0 -- -- 50
2020-09-04 09:00:00 18.9 5 Nordeste 11 Nordeste 0 -- -- 61
2020-09-04 08:00:00 17.3 3 Sudeste 6 Sudeste 0 -- -- 63
2020-09-04 07:00:00 17.6 3 Sudoeste 12 Oeste 0 -- -- 65
2020-09-04 06:00:00 17.8 0 Calma 13 Sur 0 -- -- 63
2020-09-04 05:00:00 19.5 10 Sudoeste 19 Sudoeste 0 -- -- 59
2020-09-04 04:00:00 19.6 6 Sur 28 Sudeste 0 -- -- 57
2020-09-04 03:00:00 19.8 6 Sudoeste 14 Oeste 0 -- -- 49
2020-09-04 02:00:00 20.7 6 Sudoeste 12 Oeste 0 -- -- 45
2020-09-04 01:00:00 21.2 6 Sudoeste 16 Sur 0 -- -- 41
2020-09-04 00:00:00 22.6 8 Sudoeste 19 Sur 0 -- -- 35
2020-09-03 23:00:00 23.8 9 Sur 23 Sudoeste 0 -- -- 33
2020-09-03 22:00:00 25.3 14 Sudoeste 23 Sudoeste 0 -- -- 33
2020-09-03 21:00:00 26.8 13 Sudoeste 23 Sudoeste 0 -- -- 30
2020-09-03 20:00:00 30.2 12 Sur 22 Sudeste 0 -- -- 21
2020-09-03 19:00:00 31.6 15 Sur 27 Nordeste 0 -- -- 21
2020-09-03 18:00:00 33.5 5 Norte 18 Este 0 -- -- 18
2020-09-03 17:00:00 33.7 6 Este 24 Sudeste 0 -- -- 16
2020-09-03 16:00:00 34 9 Este 22 Este 0 -- -- 16
2020-09-03 15:00:00 32.5 8 Sudeste 25 Sur 0 -- -- 18
2020-09-03 14:00:00 31.3 12 Sudeste 24 Sur 0 -- -- 22
2020-09-03 13:00:00 29.4 10 Sur 21 Sudeste 0 -- -- 26
2020-09-03 12:00:00 27.5 9 Sur 18 Sudoeste 0 -- -- 29
2020-09-03 11:00:00 24.1 12 Sur 20 Sudoeste 0 -- -- 36
2020-09-03 10:00:00 22.2 7 Sur 17 Sur 0 -- -- 40
2020-09-03 09:00:00 18.9 4 Sudoeste 8 Sur 0 -- -- 47
2020-09-03 08:00:00 17.1 0 Calma 10 Sur 0 -- -- 66
2020-09-03 07:00:00 17.2 5 Sur 10 Sur 0 -- -- 60
2020-09-03 06:00:00 16.4 0 Calma 5 Nordeste 0 -- -- 51
2020-09-03 05:00:00 17.6 3 Nordeste 13 Norte 0 -- -- 44
2020-09-03 04:00:00 19.5 10 Norte 15 Norte 0 -- -- 39
2020-09-03 03:00:00 19 3 Noroeste 6 Norte 0 -- -- 39
2020-09-03 02:00:00 20.8 6 Noroeste 9 Noroeste 0 -- -- 34
2020-09-03 01:00:00 21.9 6 Noroeste 11 Noroeste 0 -- -- 36
2020-09-03 00:00:00 22.4 8 Oeste 14 Oeste 0 -- -- 30
2020-09-02 23:00:00 22 6 Noroeste 12 Noroeste 0 -- -- 33
2020-09-02 22:00:00 23.2 5 Sudoeste 16 Sur 0 -- -- 31
2020-09-02 21:00:00 25.8 12 Sudoeste 18 Sudoeste 0 -- -- 27
2020-09-02 20:00:00 28.5 9 Sudoeste 19 Sudoeste 0 -- -- 23
2020-09-02 19:00:00 30.1 10 Sudoeste 18 Sudoeste 0 -- -- 21
2020-09-02 18:00:00 29.6 10 Sudoeste 21 Sudeste 0 -- -- 22
2020-09-02 17:00:00 30.7 6 Norte 23 Sudeste 0 -- -- 20
2020-09-02 16:00:00 32.1 7 Este 24 Sur 0 -- -- 18
2020-09-02 15:00:00 30.4 8 Sur 19 Este 0 -- -- 23
2020-09-02 14:00:00 30.2 8 Este 17 Nordeste 0 -- -- 20
2020-09-02 13:00:00 29.1 9 Este 18 Este 0 -- -- 22
2020-09-02 12:00:00 26.6 6 Este 13 Este 0 -- -- 31
2020-09-02 11:00:00 24.4 5 Este 12 Este 0 -- -- 38
2020-09-02 10:00:00 21.9 6 Nordeste 15 Nordeste 0 -- -- 42
2020-09-02 09:00:00 19.5 10 Nordeste 16 Nordeste 0 -- -- 46
2020-09-02 08:00:00 18.8 11 Norte 18 Norte 0 -- -- 47
2020-09-02 07:00:00 17.4 14 Nordeste 20 Norte 0 -- -- 52
2020-09-02 06:00:00 19.1 12 Norte 21 Norte 0 -- -- 37
2020-09-02 05:00:00 19.1 11 Norte 21 Norte 0 -- -- 44
2020-09-02 04:00:00 18.5 3 Noroeste 24 Norte 0 -- -- 46
2020-09-02 03:00:00 20.5 15 Norte 29 Norte 0 -- -- 43
2020-09-02 02:00:00 19.9 15 Norte 29 Noroeste 0 -- -- 48
2020-09-02 01:00:00 21.1 13 Norte 27 Norte 0 -- -- 42
2020-09-02 00:00:00 19.3 4 Oeste 6 Noroeste 0 -- -- 37
2020-09-01 23:00:00 19.3 2 Norte 9 Noroeste 0 -- -- 38
2020-09-01 22:00:00 21.9 3 Sudoeste 17 Sudoeste 0 -- -- 33
2020-09-01 21:00:00 24.2 10 Sudoeste 28 Sur 0 -- -- 30
2020-09-01 20:00:00 26.7 15 Sudoeste 34 Sudoeste 0 -- -- 23
2020-09-01 19:00:00 28.4 15 Sudoeste 27 Sur 0 -- -- 21
2020-09-01 18:00:00 29.7 15 Sudoeste 33 Sur 0 -- -- 21
2020-09-01 17:00:00 29.9 12 Sur 33 Sur 0 -- -- 20
2020-09-01 16:00:00 29.7 11 Sur 21 Sur 0 -- -- 20
2020-09-01 15:00:00 28.3 5 Sudoeste 22 Sur 0 -- -- 21
2020-09-01 14:00:00 27.3 10 Sudoeste 21 Sudoeste 0 -- -- 25
2020-09-01 13:00:00 25.7 10 Sudoeste 19 Sudoeste 0 -- -- 28
2020-09-01 12:00:00 24.5 7 Sudoeste 17 Sudoeste 0 -- -- 31
2020-09-01 11:00:00 21.9 5 Sudoeste 10 Oeste 0 -- -- 36
2020-09-01 10:00:00 20.6 4 Sudoeste 8 Sudoeste 0 -- -- 41
2020-09-01 09:00:00 19.5 5 Noroeste 9 Oeste 0 -- -- 46
2020-09-01 08:00:00 17.1 0 Calma 3 Nordeste 0 -- -- 43
2020-09-01 07:00:00 16.3 2 Nordeste 5 Sudoeste 0 -- -- 40
2020-09-01 06:00:00 16.5 0 Calma 5 Noroeste 0 -- -- 39
2020-09-01 05:00:00 17.6 3 Noroeste 10 Noroeste 0 -- -- 30
2020-09-01 04:00:00 18.9 5 Nordeste 7 Nordeste 0 -- -- 39
2020-09-01 03:00:00 18 5 Norte 6 Nordeste 0 -- -- 25
2020-09-01 02:00:00 19.4 7 Nordeste 12 Norte 0 -- -- 21
2020-09-01 01:00:00 20.9 10 Norte 12 Norte 0 -- -- 19
2020-09-01 00:00:00 21.5 8 Norte 15 Norte 0 -- -- 20
2020-08-31 23:00:00 22.2 10 Nordeste 15 Norte 0 -- -- 20
2020-08-31 22:00:00 22.7 6 Nordeste 18 Norte 0 -- -- 21
2020-08-31 21:00:00 24 5 Norte 9 Norte 0 -- -- 23
2020-08-31 20:00:00 28.3 6 Norte 17 Nordeste 0 -- -- 20
2020-08-31 19:00:00 30.8 7 Nordeste 12 Este 0 -- -- 17
2020-08-31 18:00:00 31 6 Sur 18 Oeste 0 -- -- 17
2020-08-31 17:00:00 30 11 Sudoeste 23 Sudoeste 0 -- -- 18
2020-08-31 16:00:00 30.4 7 Oeste 21 Sur 0 -- -- 18
2020-08-31 15:00:00 29.1 8 Sudoeste 20 Sudeste 0 -- -- 21
2020-08-31 14:00:00 28.4 4 Sur 19 Sudeste 0 -- -- 22
2020-08-31 13:00:00 26.6 8 Sudoeste 23 Sur 0 -- -- 26
2020-08-31 12:00:00 25.5 6 Sudeste 19 Sur 0 -- -- 31
2020-08-31 11:00:00 22.8 8 Sudeste 15 Sur 0 -- -- 33
2020-08-31 10:00:00 19.4 8 Este 21 Este 0 -- -- 28
2020-08-31 09:00:00 16.6 13 Nordeste 22 Nordeste 0 -- -- 31
2020-08-31 08:00:00 16.6 12 Nordeste 23 Este 0 -- -- 30
2020-08-31 07:00:00 17.2 12 Este 25 Este 0 -- -- 29
2020-08-31 06:00:00 16.9 8 Nordeste 15 Nordeste 0 -- -- 30
2020-08-31 05:00:00 16.6 9 Nordeste 17 Nordeste 0 -- -- 30
2020-08-31 04:00:00 16.9 13 Nordeste 18 Nordeste 0 -- -- 30
2020-08-31 03:00:00 17.3 13 Nordeste 19 Norte 0 -- -- 29
2020-08-31 02:00:00 17.8 12 Nordeste 18 Norte 0 -- -- 27
2020-08-31 01:00:00 18.7 10 Nordeste 15 Nordeste 0 -- -- 25
2020-08-31 00:00:00 18.9 6 Nordeste 16 Nordeste 0 -- -- 25
2020-08-30 23:00:00 19.4 7 Nordeste 14 Nordeste 0 -- -- 24
2020-08-30 22:00:00 20 7 Norte 23 Nordeste 0 -- -- 23
2020-08-30 21:00:00 22.2 12 Nordeste 23 Nordeste 0 -- -- 22
2020-08-30 20:00:00 25.2 10 Norte 22 Norte 0 -- -- 17
2020-08-30 19:00:00 27.4 10 Nordeste 26 Norte 0 -- -- 16
2020-08-30 18:00:00 27.9 10 Norte 26 Norte 0 -- -- 16
2020-08-30 17:00:00 27.7 12 Norte 25 Oeste 0 -- -- 16
2020-08-30 16:00:00 27.9 9 Norte 26 Nordeste 0 -- -- 16
2020-08-30 15:00:00 27.3 7 Este 17 Nordeste 0 -- -- 18
2020-08-30 14:00:00 25.9 8 Norte 21 Norte 0 -- -- 18
2020-08-30 13:00:00 25.2 8 Nordeste 18 Sudeste 0 -- -- 22
2020-08-30 12:00:00 23.6 7 Nordeste 21 Nordeste 0 -- -- 26
2020-08-30 11:00:00 20.1 10 Nordeste 19 Norte 0 -- -- 34
2020-08-30 10:00:00 17.4 13 Nordeste 20 Nordeste 0 -- -- 39
2020-08-30 09:00:00 15.1 12 Nordeste 21 Nordeste 0 -- -- 44
2020-08-30 08:00:00 14.4 15 Norte 24 Norte 0 -- -- 46
2020-08-30 07:00:00 14.5 15 Norte 25 Nordeste 0 -- -- 47
2020-08-30 06:00:00 14.9 17 Norte 27 Norte 0 -- -- 47
2020-08-30 05:00:00 15.5 17 Norte 26 Norte 0 -- -- 44
2020-08-30 04:00:00 16.1 14 Norte 24 Norte 0 -- -- 41
2020-08-30 03:00:00 16.8 12 Norte 26 Norte 0 -- -- 38
2020-08-30 02:00:00 17.3 13 Norte 35 Noroeste 0 -- -- 36
2020-08-30 01:00:00 17.8 14 Norte 27 Norte 0 -- -- 34
2020-08-30 00:00:00 18.5 12 Norte 29 Norte 0 -- -- 32
2020-08-29 23:00:00 18.9 13 Norte 29 Norte 0 -- -- 31
2020-08-29 22:00:00 19.5 14 Norte 30 Norte 0 -- -- 28
2020-08-29 21:00:00 20.5 13 Norte 32 Norte 0 -- -- 25
2020-08-29 20:00:00 22.9 14 Norte 33 Norte 0 -- -- 22
2020-08-29 19:00:00 24.5 14 Norte 40 Nordeste 0 -- -- 21
2020-08-29 18:00:00 25.3 11 Norte 30 Noroeste 0 -- -- 22
2020-08-29 17:00:00 24.8 18 Norte 33 Norte 0 -- -- 23
2020-08-29 16:00:00 25.3 16 Norte 34 Norte 0 -- -- 24
2020-08-29 15:00:00 24.3 17 Norte 34 Nordeste 0 -- -- 30
2020-08-29 14:00:00 22.6 19 Norte 46 Norte 0 -- -- 31
2020-08-29 13:00:00 20 16 Norte 37 Noroeste 0 -- -- 35
2020-08-29 12:00:00 17.3 17 Norte 38 Norte 0 -- -- 45
2020-08-29 11:00:00 15.9 18 Norte 39 Nordeste 0 -- -- 49
2020-08-29 10:00:00 14.1 20 Norte 38 Norte 0 -- -- 54
2020-08-29 09:00:00 12.1 18 Norte 38 Norte 0 -- -- 66
2020-08-29 08:00:00 11.5 15 Norte 35 Noroeste 0 -- -- 72
2020-08-29 07:00:00 11.9 15 Norte 36 Norte 0 -- -- 72
2020-08-29 06:00:00 12.5 17 Norte 33 Norte 0 -- -- 71
2020-08-29 05:00:00 13 17 Norte 34 Norte 0 -- -- 70
2020-08-29 04:00:00 13.6 20 Norte 41 Norte 0 -- -- 65
2020-08-29 03:00:00 14.9 23 Norte 45 Noroeste 0 -- -- 58
2020-08-29 02:00:00 15.7 15 Norte 35 Norte 0 -- -- 52
2020-08-29 01:00:00 16.8 14 Noroeste 32 Noroeste 0 -- -- 49
2020-08-29 00:00:00 18.3 12 Noroeste 37 Norte 0 -- -- 34
2020-08-28 23:00:00 20 21 Norte 37 Norte 0 -- -- 28
2020-08-28 22:00:00 22.3 10 Norte 20 Norte 0 -- -- 20
2020-08-28 21:00:00 24.2 7 Noroeste 28 Oeste 0 -- -- 19
2020-08-28 20:00:00 27.4 12 Noroeste 34 Noroeste 0 -- -- 17
2020-08-28 19:00:00 29.3 14 Noroeste 30 Oeste 0 -- -- 22
2020-08-28 18:00:00 30.5 11 Noroeste 32 Noroeste 0 -- -- 29
2020-08-28 17:00:00 31 14 Noroeste 31 Oeste 0 -- -- 29
2020-08-28 16:00:00 30.4 16 Oeste 32 Sudoeste 0 -- -- 32
2020-08-28 15:00:00 27.3 14 Oeste 29 Noroeste 0 -- -- 40
2020-08-28 14:00:00 29.3 14 Norte 29 Norte 0 -- -- 32
2020-08-28 13:00:00 28.4 12 Norte 31 Norte 0 -- -- 35
2020-08-28 12:00:00 25.8 17 Norte 30 Norte 0 -- -- 41
2020-08-28 11:00:00 23.5 16 Norte 28 Norte 0 -- -- 51
2020-08-28 10:00:00 22.1 18 Norte 30 Norte 0 -- -- 55
2020-08-28 09:00:00 19.9 17 Norte 30 Norte 0 -- -- 64
2020-08-28 08:00:00 20.1 19 Norte 33 Norte 0 -- -- 64
2020-08-28 07:00:00 18.7 12 Norte 25 Norte 0 -- -- 73
2020-08-28 06:00:00 19.3 9 Noroeste 17 Norte 0 -- -- 72
2020-08-28 05:00:00 19.5 2 Sudoeste 21 Noroeste 0 -- -- 67
2020-08-28 04:00:00 18.8 2 Este 5 Norte 0 -- -- 64
2020-08-28 03:00:00 20.4 2 Sudoeste 23 Norte 0 -- -- 57
2020-08-28 02:00:00 23.3 12 Norte 32 Norte 0 -- -- 49
2020-08-28 01:00:00 25.3 16 Norte 37 Norte 0 -- -- 35
2020-08-28 00:00:00 25.3 22 Norte 33 Norte 0 -- -- 46
2020-08-27 23:00:00 26.6 4 Norte 21 Noroeste 0 -- -- 33
2020-08-27 22:00:00 29.1 9 Norte 19 Norte 0 -- -- 25
2020-08-27 21:00:00 29.7 8 Norte 24 Noroeste 0 -- -- 23
2020-08-27 20:00:00 32.5 12 Norte 26 Oeste 0 -- -- 22
2020-08-27 19:00:00 35.4 9 Noroeste 28 Oeste 0 -- -- 17
2020-08-27 18:00:00 35.9 14 Oeste 31 Oeste 0 -- -- 10
2020-08-27 17:00:00 36 8 Oeste 31 Norte 0 -- -- 14
2020-08-27 16:00:00 36.2 14 Norte 30 Sudoeste 0 -- -- 14
2020-08-27 15:00:00 36.4 15 Sudoeste 29 Sudoeste 0 -- -- 11
2020-08-27 14:00:00 34.9 14 Sudoeste 31 Sudoeste 0 -- -- 17
2020-08-27 13:00:00 33.3 14 Sudoeste 24 Sudoeste 0 -- -- 18
2020-08-27 12:00:00 31.6 12 Sudoeste 23 Sudoeste 0 -- -- 22
2020-08-27 11:00:00 30 6 Oeste 12 Sudoeste 0 -- -- 27
2020-08-27 10:00:00 27.5 4 Sudoeste 6 Sur 0 -- -- 34
2020-08-27 09:00:00 24.3 2 Nordeste 6 Nordeste 0 -- -- 41
2020-08-27 08:00:00 23.6 4 Norte 14 Norte 0 -- -- 38
2020-08-27 07:00:00 25 10 Norte 17 Norte 0 -- -- 32
2020-08-27 06:00:00 25.3 11 Norte 17 Norte 0 -- -- 31
2020-08-27 05:00:00 25.2 12 Norte 18 Norte 0 -- -- 39
2020-08-27 04:00:00 25.4 12 Norte 22 Norte 0 -- -- 39
2020-08-27 03:00:00 26.1 15 Norte 24 Norte 0 -- -- 37
2020-08-27 02:00:00 27 11 Norte 16 Norte 0 -- -- 28
2020-08-27 01:00:00 27.4 10 Norte 18 Norte 0 -- -- 23
2020-08-27 00:00:00 29 10 Norte 22 Norte 0 -- -- 18
2020-08-26 23:00:00 29.9 13 Norte 23 Noroeste 0 -- -- 15
2020-08-26 22:00:00 30.2 6 Oeste 19 Oeste 0 -- -- 14
2020-08-26 21:00:00 31.6 7 Noroeste 20 Noroeste 0 -- -- 19
2020-08-26 20:00:00 35.1 9 Oeste 20 Oeste 0 -- -- 18
2020-08-26 19:00:00 36.9 11 Sudoeste 24 Oeste 0 -- -- 16
2020-08-26 18:00:00 37.8 10 Sudoeste 24 Sudoeste 0 -- -- 14
2020-08-26 17:00:00 37.3 11 Oeste 22 Oeste 0 -- -- 14
2020-08-26 16:00:00 37.7 9 Sur 23 Sur 0 -- -- 13
2020-08-26 15:00:00 36.9 9 Sudoeste 23 Sudoeste 0 -- -- 15
2020-08-26 14:00:00 34.7 10 Sur 19 Sudoeste 0 -- -- 17
2020-08-26 13:00:00 33.7 10 Sur 21 Sudoeste 0 -- -- 19
2020-08-26 12:00:00 32.1 7 Sudoeste 13 Sudoeste 0 -- -- 19
2020-08-26 11:00:00 31.3 4 Sudeste 10 Nordeste 0 -- -- 20
2020-08-26 10:00:00 28.6 0 Calma 12 Nordeste 0 -- -- 24
2020-08-26 09:00:00 25.8 8 Nordeste 14 Norte 0 -- -- 25
2020-08-26 08:00:00 24.6 10 Nordeste 16 Nordeste 0 -- -- 26
2020-08-26 07:00:00 24.9 13 Nordeste 17 Nordeste 0 -- -- 25
2020-08-26 06:00:00 25 12 Norte 24 Norte 0 -- -- 25
2020-08-26 05:00:00 25.3 18 Norte 26 Norte 0 -- -- 27
2020-08-26 04:00:00 25.6 17 Norte 25 Norte 0 -- -- 25
2020-08-26 03:00:00 25.8 14 Norte 26 Noroeste 0 -- -- 28
2020-08-26 02:00:00 26.6 13 Norte 22 Noroeste 0 -- -- 26
2020-08-26 01:00:00 24.4 5 Nordeste 6 Norte 0 -- -- 45
2020-08-26 00:00:00 25 0 Calma 8 Sudoeste 0 -- -- 41
2020-08-25 23:00:00 27.7 5 Sudoeste 19 Sudoeste 0 -- -- 34
2020-08-25 22:00:00 28.8 8 Sudoeste 14 Sudoeste 0 -- -- 32
2020-08-25 21:00:00 30.4 5 Sudoeste 17 Sur 0 -- -- 27
2020-08-25 20:00:00 34.7 10 Sudoeste 16 Sudoeste 0 -- -- 20
2020-08-25 19:00:00 37.3 7 Sudoeste 16 Sudeste 0 -- -- 14
2020-08-25 18:00:00 36.8 9 Sudoeste 21 Sudoeste 0 -- -- 15
2020-08-25 17:00:00 36.4 11 Sudoeste 25 Oeste 0 -- -- 16
2020-08-25 16:00:00 36.1 9 Oeste 30 Sudoeste 0 -- -- 16
2020-08-25 15:00:00 35.6 7 Sur 18 Sudoeste 0 -- -- 17
2020-08-25 14:00:00 34 5 Sur 16 Sur 0 -- -- 20
2020-08-25 13:00:00 32.9 8 Sur 15 Sur 0 -- -- 24
2020-08-25 12:00:00 30.2 7 Sudoeste 14 Sudoeste 0 -- -- 31
2020-08-25 11:00:00 27.2 5 Sudoeste 10 Sudoeste 0 -- -- 37
2020-08-25 10:00:00 24.5 6 Sudoeste 10 Sudoeste 0 -- -- 43
2020-08-25 09:00:00 21.3 0 Calma 4 Norte 0 -- -- 49
2020-08-25 08:00:00 20.2 4 Norte 6 Norte 0 -- -- 48
2020-08-25 07:00:00 20.2 5 Norte 8 Noroeste 0 -- -- 50
2020-08-25 06:00:00 19.3 3 Norte 5 Nordeste 0 -- -- 55
2020-08-25 05:00:00 20.4 2 Norte 9 Este 0 -- -- 48
2020-08-25 04:00:00 23.1 5 Oeste 18 Oeste 0 -- -- 45
2020-08-25 03:00:00 25.6 12 Noroeste 21 Noroeste 0 -- -- 34
2020-08-25 02:00:00 23.2 5 Oeste 11 Oeste 0 -- -- 38
2020-08-25 01:00:00 22.9 3 Noroeste 11 Sudoeste 0 -- -- 44
2020-08-25 00:00:00 24.7 3 Sudoeste 15 Sudoeste 0 -- -- 38
2020-08-24 23:00:00 26.7 9 Sudoeste 15 Sudoeste 0 -- -- 33
2020-08-24 22:00:00 27.7 11 Sudoeste 19 Sudoeste 0 -- -- 32
2020-08-24 21:00:00 29.7 9 Sudoeste 21 Sudoeste 0 -- -- 24
2020-08-24 20:00:00 33.5 8 Sudoeste 15 Sudoeste 0 -- -- 17
2020-08-24 19:00:00 35 8 Sudoeste 22 Sudoeste 0 -- -- 14
2020-08-24 18:00:00 35.6 6 Sudoeste 18 Oeste 0 -- -- 12
2020-08-24 17:00:00 35 10 Sur 23 Sudoeste 0 -- -- 14
2020-08-24 16:00:00 34.6 10 Oeste 25 Sudoeste 0 -- -- 16
2020-08-24 15:00:00 34.4 7 Noroeste 17 Oeste 0 -- -- 13
2020-08-24 14:00:00 32.8 7 Sudoeste 21 Sudoeste 0 -- -- 16
2020-08-24 13:00:00 31.2 9 Sudoeste 18 Sudoeste 0 -- -- 20
2020-08-24 12:00:00 29.5 8 Sudoeste 14 Sudoeste 0 -- -- 24
2020-08-24 11:00:00 26.5 7 Sudoeste 13 Sudoeste 0 -- -- 29
2020-08-24 10:00:00 25 3 Sur 6 Sur 0 -- -- 31
2020-08-24 09:00:00 20.2 4 Este 6 Nordeste 0 -- -- 40
2020-08-24 08:00:00 18.1 2 Norte 7 Norte 0 -- -- 41
2020-08-24 07:00:00 19.2 4 Norte 7 Norte 0 -- -- 31
2020-08-24 06:00:00 20.9 2 Nordeste 12 Norte 0 -- -- 33
2020-08-24 05:00:00 22.7 7 Norte 25 Noroeste 0 -- -- 32
2020-08-24 04:00:00 22.8 15 Norte 24 Norte 0 -- -- 40
2020-08-24 03:00:00 23.5 10 Norte 22 Norte 0 -- -- 36
2020-08-24 02:00:00 24.6 15 Norte 30 Noroeste 0 -- -- 33
2020-08-24 01:00:00 25.7 8 Noroeste 13 Norte 0 -- -- 21
2020-08-24 00:00:00 25 6 Noroeste 13 Norte 0 -- -- 21
2020-08-23 23:00:00 25.7 8 Norte 15 Norte 0 -- -- 20
2020-08-23 22:00:00 26.3 7 Norte 21 Norte 0 -- -- 19
2020-08-23 21:00:00 27.5 10 Norte 18 Norte 0 -- -- 18
2020-08-23 20:00:00 30.6 11 Norte 21 Nordeste 0 -- -- 15
2020-08-23 19:00:00 32.6 11 Norte 23 Norte 0 -- -- 12
2020-08-23 18:00:00 33.8 12 Norte 28 Norte 0 -- -- 11
2020-08-23 17:00:00 34.3 14 Norte 35 Nordeste 0 -- -- 10
2020-08-23 16:00:00 34.2 10 Noroeste 38 Noroeste 0 -- -- 12
2020-08-23 15:00:00 33.3 11 Norte 28 Nordeste 0 -- -- 15
2020-08-23 14:00:00 33.1 12 Nordeste 31 Sudoeste 0 -- -- 14
2020-08-23 13:00:00 31.9 7 Oeste 15 Oeste 0 -- -- 12
2020-08-23 12:00:00 29.3 9 Nordeste 18 Norte 0 -- -- 18
2020-08-23 11:00:00 27.5 9 Nordeste 18 Nordeste 0 -- -- 20
2020-08-23 10:00:00 24.5 12 Nordeste 18 Nordeste 0 -- -- 24
2020-08-23 09:00:00 22.5 13 Nordeste 19 Nordeste 0 -- -- 25
2020-08-23 08:00:00 20.7 11 Norte 22 Norte 0 -- -- 26
2020-08-23 07:00:00 21.4 17 Norte 26 Norte 0 -- -- 27
2020-08-23 06:00:00 22.1 16 Norte 25 Norte 0 -- -- 23
2020-08-23 05:00:00 22.2 15 Norte 25 Norte 0 -- -- 24
2020-08-23 04:00:00 23.1 15 Norte 27 Norte 0 -- -- 22
2020-08-23 03:00:00 23 17 Norte 33 Norte 0 -- -- 26
2020-08-23 02:00:00 23.5 20 Norte 31 Norte 0 -- -- 29
2020-08-23 01:00:00 25 12 Norte 23 Norte 0 -- -- 23
2020-08-23 00:00:00 25.6 14 Norte 24 Norte 0 -- -- 23
2020-08-22 23:00:00 26 15 Norte 24 Norte 0 -- -- 22
2020-08-22 22:00:00 26.7 12 Norte 22 Norte 0 -- -- 19
2020-08-22 21:00:00 28.1 13 Norte 22 Norte 0 -- -- 17
2020-08-22 20:00:00 31 13 Norte 24 Norte 0 -- -- 17
2020-08-22 19:00:00 33 12 Norte 24 Norte 0 -- -- 15
2020-08-22 18:00:00 33.8 12 Norte 23 Norte 0 -- -- 16
2020-08-22 17:00:00 33.9 13 Norte 25 Norte 0 -- -- 17
2020-08-22 16:00:00 34.6 6 Norte 26 Sudoeste 0 -- -- 22
2020-08-22 15:00:00 32.7 9 Oeste 22 Oeste 0 -- -- 24
2020-08-22 14:00:00 31.1 10 Sudoeste 20 Sudoeste 0 -- -- 31
2020-08-22 13:00:00 29.6 6 Sur 15 Sudoeste 0 -- -- 37
2020-08-22 12:00:00 27.2 5 Norte 14 Nordeste 0 -- -- 39
2020-08-22 11:00:00 24.5 7 Nordeste 20 Norte 0 -- -- 42
2020-08-22 10:00:00 22.5 14 Nordeste 21 Norte 0 -- -- 46
2020-08-22 09:00:00 20.8 14 Nordeste 19 Nordeste 0 -- -- 54
2020-08-22 08:00:00 19.7 11 Norte 16 Norte 0 -- -- 56
2020-08-22 07:00:00 19.8 10 Norte 14 Norte 0 -- -- 55
2020-08-22 06:00:00 20.3 11 Norte 21 Norte 0 -- -- 55
2020-08-22 05:00:00 19.8 14 Norte 24 Norte 0 -- -- 56
2020-08-22 04:00:00 20.4 17 Norte 23 Norte 0 -- -- 54
2020-08-22 03:00:00 21 17 Norte 25 Norte 0 -- -- 52
2020-08-22 02:00:00 21.2 18 Norte 26 Norte 0 -- -- 55
2020-08-22 01:00:00 22.1 18 Norte 27 Norte 0 -- -- 56
2020-08-22 00:00:00 23.5 13 Norte 24 Norte 0 -- -- 61
2020-08-21 23:00:00 24.4 10 Norte 22 Norte 0 -- -- 59
2020-08-21 22:00:00 25.8 4 Norte 16 Noroeste 0 -- -- 54
2020-08-21 21:00:00 27.8 8 Norte 20 Oeste 0 -- -- 45
2020-08-21 20:00:00 31.9 8 Noroeste 21 Oeste 0 -- -- 33
2020-08-21 19:00:00 33.3 12 Oeste 27 Oeste 0 -- -- 28
2020-08-21 18:00:00 35 7 Norte 31 Sudoeste 0 -- -- 21
2020-08-21 17:00:00 33.9 15 Sudoeste 28 Sudoeste 0 -- -- 19
2020-08-21 16:00:00 33.4 14 Sudoeste 24 Sudoeste 0 -- -- 23
2020-08-21 15:00:00 31.9 10 Oeste 24 Sudoeste 0 -- -- 25
2020-08-21 14:00:00 30.2 10 Oeste 22 Oeste 0 -- -- 33
2020-08-21 13:00:00 28.5 8 Sudoeste 20 Oeste 0 -- -- 39
2020-08-21 12:00:00 26.8 12 Sudoeste 24 Sudoeste 0 -- -- 45
2020-08-21 11:00:00 25.1 11 Sudoeste 20 Sudoeste 0 -- -- 49
2020-08-21 10:00:00 23 7 Sudoeste 12 Sudoeste 0 -- -- 66
2020-08-21 09:00:00 19.2 0 Calma 8 Norte 0 -- -- 87
2020-08-21 08:00:00 17.5 5 Nordeste 12 Nordeste 0 -- -- 93
2020-08-21 07:00:00 18.5 9 Nordeste 15 Norte 0 -- -- 88
2020-08-21 06:00:00 18.3 6 Nordeste 12 Norte 0 -- -- 85
2020-08-21 05:00:00 19.4 8 Norte 12 Norte 0 -- -- 81
2020-08-21 04:00:00 19.7 6 Nordeste 12 Noroeste 0 -- -- 77
2020-08-21 03:00:00 20.7 6 Norte 11 Noroeste 0 -- -- 72
2020-08-21 02:00:00 21.1 2 Sudoeste 12 Norte 0 -- -- 68
2020-08-21 01:00:00 21.5 0 Calma 15 Noroeste 0 -- -- 56
2020-08-21 00:00:00 24.5 6 Noroeste 17 Noroeste 0 -- -- 46
2020-08-20 23:00:00 22.7 5 Norte 15 Sudoeste 0 -- -- 17
2020-08-20 22:00:00 26.1 10 Sudoeste 21 Sudoeste 0 -- -- 14
2020-08-20 21:00:00 28.7 13 Sudoeste 26 Sudoeste 0 -- -- 12
2020-08-20 20:00:00 32 13 Sudoeste 28 Sudoeste 0 -- -- 12
2020-08-20 19:00:00 32.9 18 Sudoeste 36 Sudoeste 0 -- -- 10
2020-08-20 18:00:00 33.7 17 Sudoeste 33 Sudoeste 0 -- -- 9
2020-08-20 17:00:00 34 15 Sudoeste 34 Oeste 0 -- -- 9
2020-08-20 16:00:00 32.5 18 Sudoeste 35 Sudoeste 0 -- -- 10
2020-08-20 15:00:00 32.6 17 Sudoeste 36 Sudoeste 0 -- -- 12
2020-08-20 14:00:00 31.5 17 Sudoeste 36 Sudoeste 0 -- -- 14
2020-08-20 13:00:00 30.5 15 Sudoeste 31 Sudoeste 0 -- -- 15
2020-08-20 12:00:00 28.7 10 Sudoeste 22 Sudoeste 0 -- -- 20
2020-08-20 11:00:00 27.2 11 Sudoeste 17 Sudoeste 0 -- -- 21
2020-08-20 10:00:00 24.2 3 Sur 8 Sudeste 0 -- -- 29
2020-08-20 09:00:00 20.4 0 Calma 15 Nordeste 0 -- -- 38
2020-08-20 08:00:00 17.9 12 Norte 18 Nordeste 0 -- -- 55
2020-08-20 07:00:00 18.7 13 Nordeste 19 Nordeste 0 -- -- 40
2020-08-20 06:00:00 19.5 12 Nordeste 18 Nordeste 0 -- -- 33
2020-08-20 05:00:00 19.2 6 Norte 11 Norte 0 -- -- 34
2020-08-20 04:00:00 18.1 3 Nordeste 8 Noroeste 0 -- -- 40
2020-08-20 03:00:00 20.7 3 Oeste 15 Noroeste 0 -- -- 33
2020-08-20 02:00:00 22.1 4 Noroeste 15 Noroeste 0 -- -- 30
2020-08-20 01:00:00 23.3 5 Norte 16 Norte 0 -- -- 31
2020-08-20 00:00:00 22.6 4 Norte 15 Noroeste 0 -- -- 25